createdAt,value
2022-09-23T00:01:42.326Z,5.28
2022-09-23T00:04:11.553Z,5.13
2022-09-23T00:06:40.929Z,3.95
2022-09-23T00:09:09.395Z,3.83
2022-09-23T00:11:38.472Z,2.75
2022-09-23T00:14:07.293Z,2.70
2022-09-23T00:16:36.360Z,2.70
2022-09-23T00:19:05.394Z,2.72
2022-09-23T00:21:34.317Z,2.85
2022-09-23T00:24:03.311Z,3.90
2022-09-23T00:26:32.469Z,4.63
2022-09-23T00:29:01.659Z,4.15
2022-09-23T00:31:31.780Z,4.63
2022-09-23T00:34:03.032Z,6.30
2022-09-23T00:36:33.082Z,5.82
2022-09-23T00:39:04.476Z,6.72
2022-09-23T00:41:34.858Z,7.38
2022-09-23T00:44:24.192Z,5.60
2022-09-23T00:46:53.746Z,5.25
2022-09-23T00:49:31.335Z,6.95
2022-09-23T00:52:07.788Z,4.38
2022-09-23T00:54:36.652Z,3.95
2022-09-23T00:57:06.755Z,4.20
2022-09-23T00:59:36.223Z,6.35
2022-09-23T01:02:07.029Z,7.72
2022-09-23T01:04:38.819Z,7.50
2022-09-23T01:07:07.527Z,7.90
2022-09-23T01:09:37.295Z,7.82
2022-09-23T01:12:10.830Z,14.00
2022-09-23T01:14:49.417Z,7.70
2022-09-23T01:17:55.234Z,6.43
2022-09-23T01:20:45.644Z,7.30
2022-09-23T01:23:50.035Z,7.00
2022-09-23T01:27:00.562Z,9.02
2022-09-23T01:29:50.453Z,14.88
2022-09-23T01:32:32.310Z,9.15
2022-09-23T01:35:13.402Z,5.15
2022-09-23T01:38:03.834Z,3.33
2022-09-23T01:41:04.227Z,3.00
2022-09-23T01:44:03.933Z,2.50
2022-09-23T01:47:19.358Z,3.05
2022-09-23T01:50:40.039Z,3.35
2022-09-23T01:53:19.029Z,2.22
2022-09-23T01:55:53.016Z,2.83
2022-09-23T01:58:42.556Z,3.13
2022-09-23T02:01:16.557Z,3.00
2022-09-23T02:04:04.792Z,3.28
2022-09-23T02:06:59.844Z,3.13
2022-09-23T02:09:36.340Z,2.83
2022-09-23T02:12:09.445Z,3.70
2022-09-23T02:14:46.573Z,3.40
2022-09-23T02:17:22.112Z,3.30
2022-09-23T02:19:58.171Z,3.30
2022-09-23T02:23:00.714Z,3.30
2022-09-23T02:25:43.633Z,4.00
2022-09-23T02:28:53.396Z,4.18
2022-09-23T02:31:39.092Z,5.18
2022-09-23T02:34:16.811Z,4.60
2022-09-23T02:37:00.282Z,3.67
2022-09-23T02:39:38.940Z,3.13
2022-09-23T02:42:17.469Z,2.75
2022-09-23T02:44:46.214Z,3.05
2022-09-23T02:47:14.877Z,2.80
2022-09-23T02:49:43.602Z,6.50
2022-09-23T02:52:14.585Z,4.15
2022-09-23T02:54:43.369Z,4.15
2022-09-23T02:57:12.139Z,4.32
2022-09-23T02:59:41.612Z,3.50
2022-09-23T03:02:24.381Z,4.00
2022-09-23T03:05:28.197Z,3.40
2022-09-23T03:07:59.664Z,7.32
2022-09-23T03:10:42.682Z,6.68
2022-09-23T03:13:20.804Z,8.75
2022-09-23T03:16:26.775Z,7.53
2022-09-23T03:21:32.805Z,8.63
2022-09-23T03:24:06.505Z,11.68
2022-09-23T03:26:40.595Z,10.85
2022-09-23T03:29:12.252Z,9.93
2022-09-23T03:31:42.883Z,9.65
2022-09-23T03:34:20.890Z,9.63
2022-09-23T03:37:07.350Z,9.60
2022-09-23T03:39:49.515Z,8.70
2022-09-23T03:42:21.209Z,8.57
2022-09-23T03:44:58.223Z,7.93
2022-09-23T03:47:29.501Z,8.23
2022-09-23T03:49:58.521Z,9.80
2022-09-23T03:52:27.882Z,10.20
2022-09-23T03:54:56.778Z,10.68
2022-09-23T03:57:25.376Z,11.13
2022-09-23T03:59:54.221Z,10.95
2022-09-23T04:02:22.932Z,11.00
2022-09-23T04:04:52.220Z,11.90
2022-09-23T04:07:23.514Z,12.43
2022-09-23T04:09:52.470Z,12.10
2022-09-23T04:12:21.183Z,12.65
2022-09-23T04:14:49.704Z,13.30
2022-09-23T04:17:21.082Z,13.20
2022-09-23T04:19:49.707Z,13.15
2022-09-23T04:22:18.444Z,14.38
2022-09-23T04:24:46.942Z,13.68
2022-09-23T04:27:15.457Z,14.25
2022-09-23T04:29:44.193Z,15.27
2022-09-23T04:32:13.063Z,16.27
2022-09-23T04:34:41.859Z,15.95
2022-09-23T04:37:10.751Z,16.42
2022-09-23T04:39:39.546Z,16.10
2022-09-23T04:42:08.269Z,15.45
2022-09-23T04:44:37.310Z,15.73
2022-09-23T04:47:06.208Z,16.58
2022-09-23T04:49:35.118Z,16.50
2022-09-23T04:52:06.116Z,17.00
2022-09-23T04:54:34.985Z,17.45
2022-09-23T04:57:03.594Z,17.77
2022-09-23T04:59:32.335Z,19.13
2022-09-23T05:02:01.074Z,18.02
2022-09-23T05:04:29.974Z,18.58
2022-09-23T05:07:02.911Z,18.25
2022-09-23T05:09:32.019Z,18.33
2022-09-23T05:12:00.773Z,19.00
2022-09-23T05:14:29.300Z,19.35
2022-09-23T05:16:57.995Z,20.67
2022-09-23T05:19:26.696Z,20.00
2022-09-23T05:21:55.161Z,20.40
2022-09-23T05:24:25.895Z,21.52
2022-09-23T05:26:54.958Z,20.23
2022-09-23T05:29:23.685Z,21.00
2022-09-23T05:31:52.171Z,22.13
2022-09-23T05:34:20.932Z,22.50
2022-09-23T05:36:49.699Z,21.80
2022-09-23T05:39:18.358Z,21.92
2022-09-23T05:41:47.064Z,22.50
2022-09-23T05:44:15.795Z,22.58
2022-09-23T05:46:44.540Z,20.65
2022-09-23T05:49:13.123Z,18.90
2022-09-23T05:51:42.075Z,19.48
2022-09-23T05:54:11.066Z,18.65
2022-09-23T05:56:39.892Z,18.83
2022-09-23T05:59:08.459Z,17.92
2022-09-23T06:01:38.860Z,16.60
2022-09-23T06:04:08.991Z,16.05
2022-09-23T06:06:40.375Z,15.20
2022-09-23T06:09:14.094Z,14.95
2022-09-23T06:11:43.688Z,15.80
2022-09-23T06:14:15.575Z,16.10
2022-09-23T06:16:44.271Z,14.95
2022-09-23T06:19:13.120Z,15.43
2022-09-23T06:21:42.381Z,15.90
2022-09-23T06:24:15.599Z,16.02
2022-09-23T06:26:46.779Z,15.75
2022-09-23T06:29:15.392Z,14.60
2022-09-23T06:31:44.184Z,14.63
2022-09-23T06:34:14.926Z,13.43
2022-09-23T06:36:46.202Z,12.10
2022-09-23T06:39:16.177Z,12.98
2022-09-23T06:41:47.270Z,13.20
2022-09-23T06:44:16.427Z,14.63
2022-09-23T06:46:45.219Z,14.02
2022-09-23T06:49:14.376Z,13.82
2022-09-23T06:51:43.176Z,13.50
2022-09-23T06:54:11.858Z,14.35
2022-09-23T06:56:41.363Z,13.95
2022-09-23T06:59:13.770Z,14.00
2022-09-23T07:01:42.526Z,14.38
2022-09-23T07:04:11.569Z,14.50
2022-09-23T07:06:40.836Z,13.98
2022-09-23T07:09:11.680Z,14.70
2022-09-23T07:11:40.573Z,15.50
2022-09-23T07:14:09.354Z,16.80
2022-09-23T07:16:38.072Z,17.65
2022-09-23T07:19:06.985Z,15.82
2022-09-23T07:21:35.688Z,16.95
2022-09-23T07:24:05.829Z,14.57
2022-09-23T07:26:35.234Z,15.35
2022-09-23T07:29:05.791Z,14.13
2022-09-23T07:31:39.746Z,15.05
2022-09-23T07:34:12.310Z,15.27
2022-09-23T07:36:41.689Z,15.02
2022-09-23T07:39:12.856Z,14.95
2022-09-23T07:41:44.973Z,14.07
2022-09-23T07:44:13.671Z,14.07
2022-09-23T07:46:42.462Z,14.05
2022-09-23T07:49:11.603Z,15.90
2022-09-23T07:51:41.950Z,16.27
2022-09-23T07:54:14.128Z,16.42
2022-09-23T07:56:44.007Z,15.93
2022-09-23T07:59:18.870Z,35.90
2022-09-23T08:01:50.511Z,16.95
2022-09-23T08:04:29.872Z,16.50
2022-09-23T08:07:01.212Z,19.27
2022-09-23T08:09:33.059Z,17.50
2022-09-23T08:12:02.303Z,18.40
2022-09-23T08:14:31.186Z,17.30
2022-09-23T08:17:00.583Z,16.85
2022-09-23T08:19:29.199Z,18.05
2022-09-23T08:21:58.512Z,16.75
2022-09-23T08:24:28.118Z,16.45
2022-09-23T08:26:58.299Z,15.82
2022-09-23T08:29:27.419Z,16.55
2022-09-23T08:31:56.548Z,16.70
2022-09-23T08:34:28.502Z,16.00
2022-09-23T08:36:58.177Z,16.35
2022-09-23T08:39:26.881Z,22.15
2022-09-23T08:41:58.854Z,23.25
2022-09-23T08:44:46.227Z,18.00
2022-09-23T08:47:22.738Z,20.20
2022-09-23T08:50:13.974Z,23.92
2022-09-23T08:52:59.551Z,15.65
2022-09-23T08:55:35.691Z,14.73
2022-09-23T08:58:27.516Z,15.50
2022-09-23T09:01:25.576Z,16.45
2022-09-23T09:04:15.476Z,16.08
2022-09-23T09:07:31.658Z,15.82
2022-09-23T09:10:38.493Z,16.70
2022-09-23T09:13:26.365Z,18.10
2022-09-23T09:16:09.060Z,17.58
2022-09-23T09:18:56.103Z,22.35
2022-09-23T09:21:37.880Z,18.42
2022-09-23T09:24:18.285Z,15.27
2022-09-23T09:26:48.176Z,13.77
2022-09-23T09:29:39.692Z,15.60
2022-09-23T09:32:21.366Z,14.45
2022-09-23T09:34:55.372Z,14.93
2022-09-23T09:37:37.492Z,14.95
2022-09-23T09:40:07.405Z,14.27
2022-09-23T09:42:41.551Z,22.85
2022-09-23T09:45:28.937Z,17.02
2022-09-23T09:48:07.602Z,13.50
2022-09-23T09:50:47.990Z,13.30
2022-09-23T09:53:28.284Z,15.63
2022-09-23T09:56:09.946Z,13.43
2022-09-23T09:58:51.696Z,16.33
2022-09-23T10:01:34.891Z,16.85
2022-09-23T10:04:36.074Z,19.52
2022-09-23T10:07:14.944Z,14.98
2022-09-23T10:09:52.104Z,18.38
2022-09-23T10:12:23.212Z,17.17
2022-09-23T10:14:57.162Z,16.02
2022-09-23T10:17:33.769Z,16.38
2022-09-23T10:20:07.831Z,15.88
2022-09-23T10:22:43.660Z,15.27
2022-09-23T10:25:21.600Z,16.98
2022-09-23T10:27:50.871Z,16.83
2022-09-23T10:30:24.488Z,19.15
2022-09-23T10:32:55.701Z,21.23
2022-09-23T10:35:26.347Z,15.95
2022-09-23T10:38:00.304Z,36.88
2022-09-23T10:40:50.685Z,21.67
2022-09-23T10:43:49.814Z,41.45
2022-09-23T10:46:40.721Z,19.08
2022-09-23T10:49:21.778Z,17.48
2022-09-23T10:52:27.939Z,14.73
2022-09-23T10:55:23.842Z,15.20
2022-09-23T10:58:35.003Z,15.18
2022-09-23T11:01:20.129Z,17.73
2022-09-23T11:03:59.099Z,15.50
2022-09-23T11:06:59.942Z,17.30
2022-09-23T11:09:41.558Z,16.33
2022-09-23T11:12:34.653Z,15.45
2022-09-23T11:15:12.216Z,15.60
2022-09-23T11:17:43.797Z,14.85
2022-09-23T11:20:24.235Z,16.85
2022-09-23T11:23:24.438Z,18.38
2022-09-23T11:26:20.314Z,17.55
2022-09-23T11:28:49.074Z,14.50
2022-09-23T11:31:31.708Z,14.15
2022-09-23T11:34:31.860Z,17.02
2022-09-23T11:37:21.408Z,13.75
2022-09-23T11:40:24.030Z,14.23
2022-09-23T11:42:53.070Z,14.95
2022-09-23T11:45:26.598Z,19.15
2022-09-23T11:48:04.077Z,16.95
2022-09-23T11:50:41.130Z,13.82
2022-09-23T11:53:54.063Z,15.02
2022-09-23T11:56:35.524Z,13.98
2022-09-23T11:59:16.681Z,14.95
2022-09-23T12:01:55.781Z,12.82
2022-09-23T12:04:51.159Z,12.05
2022-09-23T12:07:48.385Z,12.35
2022-09-23T12:10:18.587Z,12.05
2022-09-23T12:13:06.208Z,12.30
2022-09-23T12:16:03.269Z,14.07
2022-09-23T12:18:48.220Z,13.50
2022-09-23T12:24:34.729Z,12.10
2022-09-23T12:27:09.052Z,12.88
2022-09-23T12:29:40.710Z,13.05
2022-09-23T12:32:19.138Z,13.75
2022-09-23T12:34:50.700Z,12.55
2022-09-23T12:37:38.823Z,14.30
2022-09-23T12:40:23.348Z,13.82
2022-09-23T12:42:52.632Z,14.98
2022-09-23T12:45:34.459Z,13.52
2022-09-23T12:48:06.043Z,13.52
2022-09-23T12:51:17.476Z,14.68
2022-09-23T12:53:51.183Z,14.68
2022-09-23T12:56:27.197Z,15.38
2022-09-23T12:59:21.074Z,16.20
2022-09-23T13:01:50.037Z,15.35
2022-09-23T13:05:11.774Z,15.30
2022-09-23T13:07:47.018Z,15.60
2022-09-23T13:10:20.535Z,16.15
2022-09-23T13:12:50.243Z,16.00
2022-09-23T13:15:32.277Z,16.05
2022-09-23T13:18:22.295Z,16.45
2022-09-23T13:20:55.691Z,17.77
2022-09-23T13:23:28.053Z,19.58
2022-09-23T13:26:10.958Z,18.15
2022-09-23T13:29:00.049Z,17.38
2022-09-23T13:31:28.909Z,16.00
2022-09-23T13:34:08.778Z,16.70
2022-09-23T13:36:49.301Z,16.50
2022-09-23T13:39:25.387Z,16.60
2022-09-23T13:41:57.194Z,16.63
2022-09-23T13:44:25.978Z,16.80
2022-09-23T13:47:03.921Z,18.60
2022-09-23T13:49:37.634Z,18.42
2022-09-23T13:52:06.211Z,27.13
2022-09-23T13:54:47.467Z,28.52
2022-09-23T13:57:45.661Z,29.35
2022-09-23T14:00:22.283Z,30.80
2022-09-23T14:02:50.840Z,42.40
2022-09-23T14:05:25.347Z,46.55
2022-09-23T14:07:55.943Z,115.38
2022-09-23T14:10:28.383Z,123.57
2022-09-23T14:12:57.831Z,66.75
2022-09-23T14:15:26.569Z,80.88
2022-09-23T14:18:02.842Z,49.90
2022-09-23T14:20:31.385Z,48.15
2022-09-23T14:23:12.807Z,64.25
2022-09-23T14:25:43.643Z,184.85
2022-09-23T14:28:24.963Z,87.63
2022-09-23T14:30:58.177Z,46.40
2022-09-23T14:33:34.434Z,44.40
2022-09-23T14:36:30.866Z,35.13
2022-09-23T14:39:08.137Z,41.08
2022-09-23T14:41:43.307Z,49.13
2022-09-23T14:44:26.273Z,64.05
2022-09-23T14:46:59.695Z,59.33
2022-09-23T14:49:28.823Z,62.92
2022-09-23T14:52:03.755Z,113.32
2022-09-23T14:54:42.916Z,51.90
2022-09-23T14:57:23.462Z,40.13
2022-09-23T15:00:08.829Z,48.90
2022-09-23T15:02:43.192Z,69.18
2022-09-23T15:05:22.587Z,95.40
2022-09-23T15:07:53.531Z,88.15
2022-09-23T15:10:38.250Z,91.72
2022-09-23T15:13:10.730Z,125.97
2022-09-23T15:15:39.474Z,107.70
2022-09-23T15:18:16.359Z,114.10
2022-09-23T15:21:13.121Z,126.00
2022-09-23T15:23:53.091Z,126.35
2022-09-23T15:26:49.651Z,125.47
2022-09-23T15:29:19.720Z,152.43
2022-09-23T15:31:48.402Z,132.15
2022-09-23T15:34:17.718Z,137.80
2022-09-23T15:36:46.538Z,138.32
2022-09-23T15:39:15.778Z,128.10
2022-09-23T15:41:44.739Z,123.80
2022-09-23T15:44:14.580Z,122.47
2022-09-23T15:46:48.467Z,100.13
2022-09-23T15:49:35.062Z,123.53
2022-09-23T15:52:05.654Z,131.70
2022-09-23T15:54:34.844Z,129.57
2022-09-23T15:57:03.482Z,144.45
2022-09-23T15:59:32.502Z,124.15
2022-09-23T16:02:06.296Z,119.90
2022-09-23T16:04:36.808Z,107.25
2022-09-23T16:07:06.242Z,104.43
2022-09-23T16:09:34.943Z,90.43
2022-09-23T16:12:04.241Z,68.70
2022-09-23T16:14:33.222Z,61.50
2022-09-23T16:17:04.245Z,70.63
2022-09-23T16:19:35.022Z,67.97
2022-09-23T16:22:05.252Z,51.10
2022-09-23T16:24:33.981Z,64.38
2022-09-23T16:27:08.305Z,65.45
2022-09-23T16:29:36.862Z,56.67
2022-09-23T16:32:05.654Z,44.97
2022-09-23T16:34:35.624Z,41.40
2022-09-23T16:37:05.535Z,39.25
2022-09-23T16:39:34.111Z,31.13
2022-09-23T16:42:03.052Z,37.13
2022-09-23T16:44:33.582Z,42.72
2022-09-23T16:47:02.309Z,46.45
2022-09-23T16:49:30.801Z,43.35
2022-09-23T16:52:01.924Z,40.97
2022-09-23T16:54:30.642Z,41.50
2022-09-23T16:57:00.002Z,41.88
2022-09-23T16:59:48.491Z,39.53
2022-09-23T17:02:35.540Z,35.92
2022-09-23T17:05:04.905Z,39.58
2022-09-23T17:07:33.684Z,33.60
2022-09-23T17:10:02.267Z,54.15
2022-09-23T17:12:35.985Z,36.47
2022-09-23T17:15:08.083Z,32.87
2022-09-23T17:17:40.460Z,34.70
2022-09-23T17:20:09.125Z,37.08
2022-09-23T17:22:37.816Z,38.97
2022-09-23T17:25:06.752Z,40.78
2022-09-23T17:27:36.003Z,40.83
2022-09-23T17:30:06.067Z,38.28
2022-09-23T17:32:34.630Z,37.90
2022-09-23T17:35:05.442Z,31.30
2022-09-23T17:37:34.085Z,30.77
2022-09-23T17:40:03.337Z,30.95
2022-09-23T17:42:32.096Z,34.13
2022-09-23T17:45:00.664Z,32.30
2022-09-23T17:47:33.383Z,30.13
2022-09-23T17:50:03.835Z,34.88
2022-09-23T17:52:34.200Z,34.53
2022-09-23T17:55:02.900Z,46.08
2022-09-23T17:57:34.878Z,34.72
2022-09-23T18:00:03.805Z,36.90
2022-09-23T18:02:39.972Z,34.28
2022-09-23T18:05:09.123Z,29.77
2022-09-23T18:07:37.626Z,28.00
2022-09-23T18:10:06.919Z,26.50
2022-09-23T18:12:35.725Z,26.27
2022-09-23T18:15:04.528Z,34.35
2022-09-23T18:17:33.125Z,37.72
2022-09-23T18:20:02.285Z,30.60
2022-09-23T18:22:30.796Z,20.15
2022-09-23T18:24:59.688Z,17.77
2022-09-23T19:28:27.228Z,12.95
2022-09-23T19:30:56.033Z,13.50
2022-09-23T19:33:25.193Z,12.07
2022-09-23T19:35:54.305Z,13.68
2022-09-23T19:38:23.044Z,11.90
2022-09-23T19:40:53.049Z,11.93
2022-09-23T19:43:21.832Z,11.65
2022-09-23T19:45:56.989Z,12.23
2022-09-23T19:48:27.884Z,37.50
2022-09-23T19:50:56.661Z,12.75
2022-09-23T19:53:28.170Z,13.55
2022-09-23T19:55:57.933Z,15.23
2022-09-23T19:58:27.100Z,18.58
2022-09-23T20:00:55.786Z,17.95
2022-09-23T20:03:25.336Z,22.67
2022-09-23T20:05:58.158Z,20.00
2022-09-23T20:08:27.941Z,26.08
2022-09-23T20:10:56.480Z,18.98
2022-09-23T20:13:25.419Z,22.27
2022-09-23T20:15:54.281Z,36.78
2022-09-23T20:18:23.185Z,14.93
2022-09-23T20:20:55.961Z,13.73
2022-09-23T20:23:24.591Z,27.77
2022-09-23T20:26:19.329Z,14.13
2022-09-23T20:28:49.374Z,21.93
2022-09-23T20:31:21.654Z,15.82
2022-09-23T20:33:59.010Z,24.35
2022-09-23T20:36:29.377Z,14.73
2022-09-23T20:39:03.164Z,16.58
2022-09-23T20:41:35.425Z,17.65
2022-09-23T20:44:06.896Z,16.00
2022-09-23T20:46:36.800Z,17.95
2022-09-23T20:49:08.538Z,15.07
2022-09-23T20:51:38.318Z,13.00
2022-09-23T20:54:11.358Z,15.18
2022-09-23T20:56:40.452Z,19.05
2022-09-23T20:59:11.457Z,13.38
2022-09-23T21:01:40.349Z,14.20
2022-09-23T21:04:10.249Z,13.13
2022-09-23T21:06:40.629Z,13.07
2022-09-23T21:09:09.370Z,14.38
2022-09-23T21:11:39.008Z,17.92
2022-09-23T21:14:07.916Z,20.70
2022-09-23T21:16:36.856Z,24.45
2022-09-23T21:19:08.718Z,14.63
2022-09-23T21:21:37.436Z,15.02
2022-09-23T21:26:55.078Z,14.40
2022-09-23T21:29:23.519Z,14.38
2022-09-23T21:31:52.128Z,14.82
2022-09-23T21:34:20.767Z,14.50
2022-09-23T21:36:49.719Z,16.30
2022-09-23T21:39:18.403Z,16.20
2022-09-23T21:41:46.958Z,18.55
2022-09-23T21:44:15.668Z,18.13
2022-09-23T21:46:44.638Z,16.10
2022-09-23T21:49:13.728Z,16.42
2022-09-23T21:51:42.408Z,16.10
2022-09-23T21:54:16.363Z,16.92
2022-09-23T21:56:45.709Z,17.23
2022-09-23T21:59:14.326Z,17.58
2022-09-23T22:01:45.848Z,16.52
2022-09-23T22:04:18.484Z,16.90
2022-09-23T22:06:49.705Z,17.65
2022-09-23T22:09:20.295Z,18.17
2022-09-23T22:12:12.417Z,18.83
2022-09-23T22:14:41.678Z,19.90
2022-09-23T22:17:12.184Z,20.48
2022-09-23T22:19:46.738Z,22.48
2022-09-23T22:22:18.198Z,26.20
2022-09-23T22:24:48.173Z,24.20
2022-09-23T22:27:19.265Z,83.38
2022-09-23T22:30:07.013Z,23.67
2022-09-23T22:32:41.858Z,82.07
2022-09-23T22:35:14.212Z,24.48
2022-09-23T22:37:43.010Z,26.00
2022-09-23T22:40:15.159Z,30.10
2022-09-23T22:42:44.805Z,37.33
2022-09-23T22:45:14.152Z,29.33
2022-09-23T22:47:45.994Z,91.50
2022-09-23T22:50:15.568Z,70.97
2022-09-23T22:52:44.582Z,34.50
2022-09-23T22:55:13.580Z,36.10
2022-09-23T22:57:45.271Z,35.70
2022-09-23T23:00:14.761Z,36.38
2022-09-23T23:02:43.364Z,37.08
2022-09-23T23:05:12.358Z,36.42
2022-09-23T23:07:41.822Z,38.10
2022-09-23T23:10:10.953Z,39.40
2022-09-23T23:12:40.179Z,39.33
2022-09-23T23:15:13.610Z,39.97
2022-09-23T23:17:43.864Z,43.20
2022-09-23T23:20:12.691Z,42.70
2022-09-23T23:22:41.303Z,43.92
2022-09-23T23:25:10.459Z,46.33
2022-09-23T23:27:39.140Z,45.97
2022-09-23T23:30:08.921Z,49.25
2022-09-23T23:32:37.843Z,49.25
2022-09-23T23:35:07.063Z,50.55
2022-09-23T23:37:35.825Z,55.50
2022-09-23T23:40:05.831Z,52.28
2022-09-23T23:42:35.311Z,53.63
2022-09-23T23:45:03.961Z,56.47
2022-09-23T23:47:32.848Z,55.58
2022-09-23T23:50:04.597Z,56.50
2022-09-23T23:52:33.297Z,58.30
2022-09-23T23:55:01.805Z,58.38
2022-09-23T23:57:30.418Z,60.50
2022-09-23T23:59:59.478Z,61.65
